sensor_id;sensor_type;location;lat;lon;timestamp;P1;durP1;ratioP1;P2;durP2;ratioP2
84301;SDS011;74468;52.218;6.896;2024-01-11T00:01:14;5.55;;;3.70;;
84301;SDS011;74468;52.218;6.896;2024-01-11T00:03:39;5.10;;;3.38;;
84301;SDS011;74468;52.218;6.896;2024-01-11T00:06:05;6.28;;;3.90;;
84301;SDS011;74468;52.218;6.896;2024-01-11T00:08:30;5.82;;;3.83;;
84301;SDS011;74468;52.218;6.896;2024-01-11T00:10:56;6.35;;;3.92;;
84301;SDS011;74468;52.218;6.896;2024-01-11T00:13:21;6.28;;;4.40;;
84301;SDS011;74468;52.218;6.896;2024-01-11T00:15:47;7.25;;;4.30;;
84301;SDS011;74468;52.218;6.896;2024-01-11T00:18:12;6.25;;;4.53;;
84301;SDS011;74468;52.218;6.896;2024-01-11T00:20:37;7.68;;;4.32;;
84301;SDS011;74468;52.218;6.896;2024-01-11T00:23:03;7.05;;;3.97;;
84301;SDS011;74468;52.218;6.896;2024-01-11T00:25:28;7.22;;;3.53;;
84301;SDS011;74468;52.218;6.896;2024-01-11T00:27:53;6.97;;;4.28;;
84301;SDS011;74468;52.218;6.896;2024-01-11T00:30:19;6.53;;;3.70;;
84301;SDS011;74468;52.218;6.896;2024-01-11T00:32:44;5.25;;;3.50;;
84301;SDS011;74468;52.218;6.896;2024-01-11T00:35:10;5.82;;;3.58;;
84301;SDS011;74468;52.218;6.896;2024-01-11T00:37:35;5.13;;;3.05;;
84301;SDS011;74468;52.218;6.896;2024-01-11T00:40:00;5.35;;;3.47;;
84301;SDS011;74468;52.218;6.896;2024-01-11T00:42:26;5.60;;;3.45;;
84301;SDS011;74468;52.218;6.896;2024-01-11T00:44:51;4.70;;;3.45;;
84301;SDS011;74468;52.218;6.896;2024-01-11T00:47:17;7.10;;;3.72;;
84301;SDS011;74468;52.218;6.896;2024-01-11T00:49:42;5.63;;;3.65;;
84301;SDS011;74468;52.218;6.896;2024-01-11T00:52:08;5.72;;;3.67;;
84301;SDS011;74468;52.218;6.896;2024-01-11T00:54:34;6.57;;;3.75;;
84301;SDS011;74468;52.218;6.896;2024-01-11T00:57:00;6.43;;;4.30;;
84301;SDS011;74468;52.218;6.896;2024-01-11T00:59:25;7.82;;;3.28;;
84301;SDS011;74468;52.218;6.896;2024-01-11T01:01:51;5.75;;;3.63;;
84301;SDS011;74468;52.218;6.896;2024-01-11T01:04:16;5.75;;;3.53;;
84301;SDS011;74468;52.218;6.896;2024-01-11T01:06:42;5.68;;;3.10;;
84301;SDS011;74468;52.218;6.896;2024-01-11T01:09:08;5.28;;;3.35;;
84301;SDS011;74468;52.218;6.896;2024-01-11T01:11:33;5.68;;;3.88;;
84301;SDS011;74468;52.218;6.896;2024-01-11T01:13:58;5.80;;;3.50;;
84301;SDS011;74468;52.218;6.896;2024-01-11T01:16:24;5.70;;;3.55;;
84301;SDS011;74468;52.218;6.896;2024-01-11T01:18:49;5.25;;;3.22;;
84301;SDS011;74468;52.218;6.896;2024-01-11T01:21:14;5.05;;;3.45;;
84301;SDS011;74468;52.218;6.896;2024-01-11T01:23:40;5.72;;;3.45;;
84301;SDS011;74468;52.218;6.896;2024-01-11T01:26:06;6.13;;;3.50;;
84301;SDS011;74468;52.218;6.896;2024-01-11T01:28:31;4.40;;;3.30;;
84301;SDS011;74468;52.218;6.896;2024-01-11T01:30:57;6.40;;;3.72;;
84301;SDS011;74468;52.218;6.896;2024-01-11T01:33:22;6.13;;;3.50;;
84301;SDS011;74468;52.218;6.896;2024-01-11T01:35:48;5.47;;;3.53;;
84301;SDS011;74468;52.218;6.896;2024-01-11T01:38:13;5.53;;;3.50;;
84301;SDS011;74468;52.218;6.896;2024-01-11T01:40:39;5.03;;;3.53;;
84301;SDS011;74468;52.218;6.896;2024-01-11T01:43:06;5.65;;;3.20;;
84301;SDS011;74468;52.218;6.896;2024-01-11T01:45:33;5.35;;;3.45;;
84301;SDS011;74468;52.218;6.896;2024-01-11T01:47:58;4.75;;;3.08;;
84301;SDS011;74468;52.218;6.896;2024-01-11T01:50:24;5.60;;;3.45;;
84301;SDS011;74468;52.218;6.896;2024-01-11T01:52:49;6.00;;;3.65;;
84301;SDS011;74468;52.218;6.896;2024-01-11T01:55:16;5.65;;;3.72;;
84301;SDS011;74468;52.218;6.896;2024-01-11T01:57:42;4.63;;;2.75;;
84301;SDS011;74468;52.218;6.896;2024-01-11T02:00:08;7.15;;;3.67;;
84301;SDS011;74468;52.218;6.896;2024-01-11T02:02:36;6.18;;;3.83;;
84301;SDS011;74468;52.218;6.896;2024-01-11T02:05:03;5.35;;;3.70;;
84301;SDS011;74468;52.218;6.896;2024-01-11T02:07:29;5.40;;;3.63;;
84301;SDS011;74468;52.218;6.896;2024-01-11T02:09:54;5.38;;;3.75;;
84301;SDS011;74468;52.218;6.896;2024-01-11T02:12:20;5.35;;;3.38;;
84301;SDS011;74468;52.218;6.896;2024-01-11T02:14:46;4.93;;;3.30;;
84301;SDS011;74468;52.218;6.896;2024-01-11T02:17:11;5.05;;;3.20;;
84301;SDS011;74468;52.218;6.896;2024-01-11T02:19:37;5.15;;;2.97;;
84301;SDS011;74468;52.218;6.896;2024-01-11T02:22:05;6.05;;;3.17;;
84301;SDS011;74468;52.218;6.896;2024-01-11T02:24:37;5.50;;;3.47;;
84301;SDS011;74468;52.218;6.896;2024-01-11T02:27:03;4.28;;;3.10;;
84301;SDS011;74468;52.218;6.896;2024-01-11T02:29:30;5.43;;;3.53;;
84301;SDS011;74468;52.218;6.896;2024-01-11T02:31:56;6.55;;;3.30;;
84301;SDS011;74468;52.218;6.896;2024-01-11T02:34:25;5.68;;;3.22;;
84301;SDS011;74468;52.218;6.896;2024-01-11T02:36:52;5.43;;;3.38;;
84301;SDS011;74468;52.218;6.896;2024-01-11T02:39:18;5.47;;;3.20;;
84301;SDS011;74468;52.218;6.896;2024-01-11T02:41:44;5.97;;;3.03;;
84301;SDS011;74468;52.218;6.896;2024-01-11T02:44:10;4.22;;;3.05;;
84301;SDS011;74468;52.218;6.896;2024-01-11T02:46:36;8.05;;;3.28;;
84301;SDS011;74468;52.218;6.896;2024-01-11T02:49:01;5.35;;;3.40;;
84301;SDS011;74468;52.218;6.896;2024-01-11T02:51:26;4.97;;;3.60;;
84301;SDS011;74468;52.218;6.896;2024-01-11T02:53:52;6.90;;;3.30;;
84301;SDS011;74468;52.218;6.896;2024-01-11T02:56:17;6.38;;;3.85;;
84301;SDS011;74468;52.218;6.896;2024-01-11T02:58:42;5.13;;;3.30;;
84301;SDS011;74468;52.218;6.896;2024-01-11T03:01:08;4.80;;;3.40;;
84301;SDS011;74468;52.218;6.896;2024-01-11T03:03:33;6.03;;;3.38;;
84301;SDS011;74468;52.218;6.896;2024-01-11T03:05:58;5.63;;;3.40;;
84301;SDS011;74468;52.218;6.896;2024-01-11T03:08:24;4.72;;;3.30;;
84301;SDS011;74468;52.218;6.896;2024-01-11T03:10:49;5.32;;;3.08;;
84301;SDS011;74468;52.218;6.896;2024-01-11T03:13:15;6.93;;;3.85;;
84301;SDS011;74468;52.218;6.896;2024-01-11T03:15:40;5.03;;;3.60;;
84301;SDS011;74468;52.218;6.896;2024-01-11T03:18:06;4.65;;;3.13;;
84301;SDS011;74468;52.218;6.896;2024-01-11T03:20:31;4.97;;;3.35;;
84301;SDS011;74468;52.218;6.896;2024-01-11T03:22:56;6.93;;;3.63;;
84301;SDS011;74468;52.218;6.896;2024-01-11T03:25:22;5.15;;;3.35;;
84301;SDS011;74468;52.218;6.896;2024-01-11T03:27:47;5.20;;;3.10;;
84301;SDS011;74468;52.218;6.896;2024-01-11T03:30:13;6.18;;;3.58;;
84301;SDS011;74468;52.218;6.896;2024-01-11T03:32:38;4.80;;;3.00;;
84301;SDS011;74468;52.218;6.896;2024-01-11T03:35:05;5.35;;;3.58;;
84301;SDS011;74468;52.218;6.896;2024-01-11T03:37:32;5.45;;;3.55;;
84301;SDS011;74468;52.218;6.896;2024-01-11T03:39:57;5.85;;;3.10;;
84301;SDS011;74468;52.218;6.896;2024-01-11T03:42:22;5.05;;;2.85;;
84301;SDS011;74468;52.218;6.896;2024-01-11T03:44:48;6.38;;;3.38;;
84301;SDS011;74468;52.218;6.896;2024-01-11T03:47:14;5.38;;;3.58;;
84301;SDS011;74468;52.218;6.896;2024-01-11T03:49:39;6.00;;;4.10;;
84301;SDS011;74468;52.218;6.896;2024-01-11T03:52:04;7.57;;;4.00;;
84301;SDS011;74468;52.218;6.896;2024-01-11T03:54:31;7.55;;;4.38;;
84301;SDS011;74468;52.218;6.896;2024-01-11T03:56:56;6.30;;;3.35;;
84301;SDS011;74468;52.218;6.896;2024-01-11T03:59:22;5.50;;;3.35;;
84301;SDS011;74468;52.218;6.896;2024-01-11T04:01:47;5.40;;;3.40;;
84301;SDS011;74468;52.218;6.896;2024-01-11T04:04:12;5.10;;;3.42;;
84301;SDS011;74468;52.218;6.896;2024-01-11T04:06:38;7.60;;;3.75;;
84301;SDS011;74468;52.218;6.896;2024-01-11T04:09:03;5.78;;;2.90;;
84301;SDS011;74468;52.218;6.896;2024-01-11T04:11:29;5.75;;;3.60;;
84301;SDS011;74468;52.218;6.896;2024-01-11T04:13:55;6.38;;;3.80;;
84301;SDS011;74468;52.218;6.896;2024-01-11T04:16:20;7.82;;;3.95;;
84301;SDS011;74468;52.218;6.896;2024-01-11T04:18:46;6.38;;;3.67;;
84301;SDS011;74468;52.218;6.896;2024-01-11T04:21:27;7.75;;;3.25;;
84301;SDS011;74468;52.218;6.896;2024-01-11T04:23:58;6.45;;;2.92;;
84301;SDS011;74468;52.218;6.896;2024-01-11T04:26:23;5.43;;;3.00;;
84301;SDS011;74468;52.218;6.896;2024-01-11T04:28:49;5.88;;;3.22;;
84301;SDS011;74468;52.218;6.896;2024-01-11T04:31:15;7.28;;;3.72;;
84301;SDS011;74468;52.218;6.896;2024-01-11T04:33:44;6.50;;;2.97;;
84301;SDS011;74468;52.218;6.896;2024-01-11T04:36:10;4.25;;;2.58;;
84301;SDS011;74468;52.218;6.896;2024-01-11T04:38:36;6.90;;;3.22;;
84301;SDS011;74468;52.218;6.896;2024-01-11T04:41:11;6.50;;;3.55;;
84301;SDS011;74468;52.218;6.896;2024-01-11T04:43:40;5.63;;;3.05;;
84301;SDS011;74468;52.218;6.896;2024-01-11T04:46:14;8.18;;;3.45;;
84301;SDS011;74468;52.218;6.896;2024-01-11T04:48:46;7.05;;;3.28;;
84301;SDS011;74468;52.218;6.896;2024-01-11T04:51:12;6.53;;;3.22;;
84301;SDS011;74468;52.218;6.896;2024-01-11T04:53:38;5.53;;;2.83;;
84301;SDS011;74468;52.218;6.896;2024-01-11T04:56:04;5.50;;;3.42;;
84301;SDS011;74468;52.218;6.896;2024-01-11T04:58:31;4.43;;;2.90;;
84301;SDS011;74468;52.218;6.896;2024-01-11T05:00:56;8.48;;;3.50;;
84301;SDS011;74468;52.218;6.896;2024-01-11T05:03:21;6.40;;;3.25;;
84301;SDS011;74468;52.218;6.896;2024-01-11T05:05:47;6.45;;;3.45;;
84301;SDS011;74468;52.218;6.896;2024-01-11T05:08:12;10.07;;;3.58;;
84301;SDS011;74468;52.218;6.896;2024-01-11T05:10:37;8.07;;;3.60;;
84301;SDS011;74468;52.218;6.896;2024-01-11T05:13:03;6.65;;;3.85;;
84301;SDS011;74468;52.218;6.896;2024-01-11T05:15:28;6.55;;;4.00;;
84301;SDS011;74468;52.218;6.896;2024-01-11T05:17:55;6.50;;;4.15;;
84301;SDS011;74468;52.218;6.896;2024-01-11T05:20:21;6.10;;;3.53;;
84301;SDS011;74468;52.218;6.896;2024-01-11T05:22:47;6.38;;;3.58;;
84301;SDS011;74468;52.218;6.896;2024-01-11T05:25:12;9.15;;;3.35;;
84301;SDS011;74468;52.218;6.896;2024-01-11T05:27:38;5.68;;;3.17;;
84301;SDS011;74468;52.218;6.896;2024-01-11T05:30:03;8.13;;;3.13;;
84301;SDS011;74468;52.218;6.896;2024-01-11T05:32:29;6.57;;;3.13;;
84301;SDS011;74468;52.218;6.896;2024-01-11T05:34:54;6.18;;;3.28;;
84301;SDS011;74468;52.218;6.896;2024-01-11T05:37:20;7.78;;;3.20;;
84301;SDS011;74468;52.218;6.896;2024-01-11T05:39:46;6.25;;;3.17;;
84301;SDS011;74468;52.218;6.896;2024-01-11T05:42:11;9.77;;;3.92;;
84301;SDS011;74468;52.218;6.896;2024-01-11T05:44:36;6.75;;;3.50;;
84301;SDS011;74468;52.218;6.896;2024-01-11T05:47:02;7.72;;;4.53;;
84301;SDS011;74468;52.218;6.896;2024-01-11T05:49:27;8.98;;;3.92;;
84301;SDS011;74468;52.218;6.896;2024-01-11T05:51:53;8.85;;;3.83;;
84301;SDS011;74468;52.218;6.896;2024-01-11T05:54:18;9.20;;;3.53;;
84301;SDS011;74468;52.218;6.896;2024-01-11T05:56:43;12.07;;;4.22;;
84301;SDS011;74468;52.218;6.896;2024-01-11T05:59:09;7.30;;;3.58;;
84301;SDS011;74468;52.218;6.896;2024-01-11T06:01:40;6.57;;;3.45;;
84301;SDS011;74468;52.218;6.896;2024-01-11T06:04:05;8.07;;;3.28;;
84301;SDS011;74468;52.218;6.896;2024-01-11T06:06:31;10.95;;;4.10;;
84301;SDS011;74468;52.218;6.896;2024-01-11T06:08:56;7.35;;;3.03;;
84301;SDS011;74468;52.218;6.896;2024-01-11T06:11:21;9.13;;;3.70;;
84301;SDS011;74468;52.218;6.896;2024-01-11T06:13:47;9.55;;;3.45;;
84301;SDS011;74468;52.218;6.896;2024-01-11T06:16:12;7.85;;;3.85;;
84301;SDS011;74468;52.218;6.896;2024-01-11T06:18:38;7.45;;;3.40;;
84301;SDS011;74468;52.218;6.896;2024-01-11T06:21:03;9.32;;;3.88;;
84301;SDS011;74468;52.218;6.896;2024-01-11T06:23:29;7.63;;;3.28;;
84301;SDS011;74468;52.218;6.896;2024-01-11T06:25:54;9.25;;;3.55;;
84301;SDS011;74468;52.218;6.896;2024-01-11T06:28:19;9.50;;;3.42;;
84301;SDS011;74468;52.218;6.896;2024-01-11T06:30:45;7.03;;;3.60;;
84301;SDS011;74468;52.218;6.896;2024-01-11T06:33:10;5.97;;;2.80;;
84301;SDS011;74468;52.218;6.896;2024-01-11T06:35:35;7.03;;;3.17;;
84301;SDS011;74468;52.218;6.896;2024-01-11T06:38:01;8.50;;;4.28;;
84301;SDS011;74468;52.218;6.896;2024-01-11T06:40:26;5.85;;;3.92;;
84301;SDS011;74468;52.218;6.896;2024-01-11T06:42:52;8.80;;;3.38;;
84301;SDS011;74468;52.218;6.896;2024-01-11T06:45:17;9.60;;;3.15;;
84301;SDS011;74468;52.218;6.896;2024-01-11T06:47:43;6.40;;;2.72;;
84301;SDS011;74468;52.218;6.896;2024-01-11T06:50:11;6.05;;;3.28;;
84301;SDS011;74468;52.218;6.896;2024-01-11T06:52:37;6.85;;;3.42;;
84301;SDS011;74468;52.218;6.896;2024-01-11T06:55:03;8.68;;;3.05;;
84301;SDS011;74468;52.218;6.896;2024-01-11T06:57:29;7.25;;;3.22;;
84301;SDS011;74468;52.218;6.896;2024-01-11T06:59:54;6.75;;;3.10;;
84301;SDS011;74468;52.218;6.896;2024-01-11T07:02:20;4.50;;;2.88;;
84301;SDS011;74468;52.218;6.896;2024-01-11T07:04:45;9.93;;;2.95;;
84301;SDS011;74468;52.218;6.896;2024-01-11T07:07:10;7.25;;;3.05;;
84301;SDS011;74468;52.218;6.896;2024-01-11T07:09:36;9.10;;;3.92;;
84301;SDS011;74468;52.218;6.896;2024-01-11T07:12:01;6.72;;;2.67;;
84301;SDS011;74468;52.218;6.896;2024-01-11T07:14:27;5.70;;;2.67;;
84301;SDS011;74468;52.218;6.896;2024-01-11T07:16:54;7.20;;;3.25;;
84301;SDS011;74468;52.218;6.896;2024-01-11T07:19:19;8.50;;;2.95;;
84301;SDS011;74468;52.218;6.896;2024-01-11T07:21:45;7.80;;;3.03;;
84301;SDS011;74468;52.218;6.896;2024-01-11T07:24:10;5.00;;;3.22;;
84301;SDS011;74468;52.218;6.896;2024-01-11T07:26:35;4.90;;;2.58;;
84301;SDS011;74468;52.218;6.896;2024-01-11T07:29:01;6.35;;;3.17;;
84301;SDS011;74468;52.218;6.896;2024-01-11T07:31:26;5.07;;;2.92;;
84301;SDS011;74468;52.218;6.896;2024-01-11T07:33:51;7.70;;;3.53;;
84301;SDS011;74468;52.218;6.896;2024-01-11T07:36:17;5.38;;;2.70;;
84301;SDS011;74468;52.218;6.896;2024-01-11T07:38:42;6.70;;;2.95;;
84301;SDS011;74468;52.218;6.896;2024-01-11T07:41:08;4.88;;;2.90;;
84301;SDS011;74468;52.218;6.896;2024-01-11T07:43:33;6.28;;;2.97;;
84301;SDS011;74468;52.218;6.896;2024-01-11T07:46:00;5.43;;;2.92;;
84301;SDS011;74468;52.218;6.896;2024-01-11T07:48:30;4.30;;;2.70;;
84301;SDS011;74468;52.218;6.896;2024-01-11T07:50:56;5.82;;;2.90;;
84301;SDS011;74468;52.218;6.896;2024-01-11T07:53:21;5.40;;;3.05;;
84301;SDS011;74468;52.218;6.896;2024-01-11T07:55:48;7.88;;;3.28;;
84301;SDS011;74468;52.218;6.896;2024-01-11T07:58:13;5.75;;;2.95;;
84301;SDS011;74468;52.218;6.896;2024-01-11T08:00:40;5.82;;;3.28;;
84301;SDS011;74468;52.218;6.896;2024-01-11T08:03:05;4.93;;;3.42;;
84301;SDS011;74468;52.218;6.896;2024-01-11T08:05:31;6.28;;;3.67;;
84301;SDS011;74468;52.218;6.896;2024-01-11T08:07:56;8.60;;;2.95;;
84301;SDS011;74468;52.218;6.896;2024-01-11T08:10:21;5.50;;;3.10;;
84301;SDS011;74468;52.218;6.896;2024-01-11T08:12:47;6.43;;;3.10;;
84301;SDS011;74468;52.218;6.896;2024-01-11T08:15:12;7.32;;;3.38;;
84301;SDS011;74468;52.218;6.896;2024-01-11T08:17:44;6.60;;;3.67;;
84301;SDS011;74468;52.218;6.896;2024-01-11T08:20:10;6.55;;;3.53;;
84301;SDS011;74468;52.218;6.896;2024-01-11T08:22:36;5.00;;;3.28;;
84301;SDS011;74468;52.218;6.896;2024-01-11T08:25:06;7.28;;;3.65;;
84301;SDS011;74468;52.218;6.896;2024-01-11T08:27:32;5.97;;;3.40;;
84301;SDS011;74468;52.218;6.896;2024-01-11T08:29:58;6.45;;;3.58;;
84301;SDS011;74468;52.218;6.896;2024-01-11T08:32:25;9.55;;;3.67;;
84301;SDS011;74468;52.218;6.896;2024-01-11T08:34:50;5.88;;;3.53;;
84301;SDS011;74468;52.218;6.896;2024-01-11T08:37:15;5.72;;;3.42;;
84301;SDS011;74468;52.218;6.896;2024-01-11T08:39:41;6.45;;;3.70;;
84301;SDS011;74468;52.218;6.896;2024-01-11T08:42:06;6.57;;;3.40;;
84301;SDS011;74468;52.218;6.896;2024-01-11T08:44:32;4.97;;;3.03;;
84301;SDS011;74468;52.218;6.896;2024-01-11T08:46:58;4.47;;;3.30;;
84301;SDS011;74468;52.218;6.896;2024-01-11T08:49:24;5.28;;;3.40;;
84301;SDS011;74468;52.218;6.896;2024-01-11T08:51:50;5.07;;;3.10;;
84301;SDS011;74468;52.218;6.896;2024-01-11T08:54:15;4.50;;;3.50;;
84301;SDS011;74468;52.218;6.896;2024-01-11T08:56:41;5.43;;;3.72;;
84301;SDS011;74468;52.218;6.896;2024-01-11T08:59:07;7.55;;;4.30;;
84301;SDS011;74468;52.218;6.896;2024-01-11T09:01:34;6.53;;;3.90;;
84301;SDS011;74468;52.218;6.896;2024-01-11T09:04:01;6.75;;;4.10;;
84301;SDS011;74468;52.218;6.896;2024-01-11T09:06:30;7.53;;;4.25;;
84301;SDS011;74468;52.218;6.896;2024-01-11T09:08:55;8.65;;;5.00;;
84301;SDS011;74468;52.218;6.896;2024-01-11T09:11:21;6.78;;;4.30;;
84301;SDS011;74468;52.218;6.896;2024-01-11T09:13:46;6.45;;;4.22;;
84301;SDS011;74468;52.218;6.896;2024-01-11T09:16:15;6.88;;;4.03;;
84301;SDS011;74468;52.218;6.896;2024-01-11T09:18:42;6.07;;;3.88;;
84301;SDS011;74468;52.218;6.896;2024-01-11T09:21:08;6.55;;;4.32;;
84301;SDS011;74468;52.218;6.896;2024-01-11T09:23:34;6.95;;;4.25;;
84301;SDS011;74468;52.218;6.896;2024-01-11T09:25:59;6.88;;;4.13;;
84301;SDS011;74468;52.218;6.896;2024-01-11T09:28:25;6.15;;;3.67;;
84301;SDS011;74468;52.218;6.896;2024-01-11T09:30:50;4.72;;;3.70;;
84301;SDS011;74468;52.218;6.896;2024-01-11T09:33:16;6.68;;;3.92;;
84301;SDS011;74468;52.218;6.896;2024-01-11T09:35:41;6.45;;;3.63;;
84301;SDS011;74468;52.218;6.896;2024-01-11T09:38:06;4.53;;;3.05;;
84301;SDS011;74468;52.218;6.896;2024-01-11T09:40:32;7.35;;;3.30;;
84301;SDS011;74468;52.218;6.896;2024-01-11T09:42:57;4.82;;;3.00;;
84301;SDS011;74468;52.218;6.896;2024-01-11T09:45:23;4.05;;;3.22;;
84301;SDS011;74468;52.218;6.896;2024-01-11T09:47:50;4.75;;;2.90;;
84301;SDS011;74468;52.218;6.896;2024-01-11T09:50:17;5.78;;;3.17;;
84301;SDS011;74468;52.218;6.896;2024-01-11T09:52:51;4.57;;;3.05;;
84301;SDS011;74468;52.218;6.896;2024-01-11T09:55:17;6.00;;;3.17;;
84301;SDS011;74468;52.218;6.896;2024-01-11T09:57:47;6.65;;;3.50;;
84301;SDS011;74468;52.218;6.896;2024-01-11T10:00:13;6.32;;;3.30;;
84301;SDS011;74468;52.218;6.896;2024-01-11T10:02:41;5.60;;;3.25;;
84301;SDS011;74468;52.218;6.896;2024-01-11T10:05:07;4.30;;;2.53;;
84301;SDS011;74468;52.218;6.896;2024-01-11T10:07:32;4.65;;;2.90;;
84301;SDS011;74468;52.218;6.896;2024-01-11T10:09:59;5.07;;;3.05;;
84301;SDS011;74468;52.218;6.896;2024-01-11T10:12:26;5.18;;;3.10;;
84301;SDS011;74468;52.218;6.896;2024-01-11T10:14:52;5.07;;;2.70;;
84301;SDS011;74468;52.218;6.896;2024-01-11T10:17:18;5.13;;;3.20;;
84301;SDS011;74468;52.218;6.896;2024-01-11T10:19:43;6.82;;;2.95;;
84301;SDS011;74468;52.218;6.896;2024-01-11T10:22:09;4.40;;;2.75;;
84301;SDS011;74468;52.218;6.896;2024-01-11T10:24:38;5.38;;;2.85;;
84301;SDS011;74468;52.218;6.896;2024-01-11T10:27:08;5.45;;;3.25;;
84301;SDS011;74468;52.218;6.896;2024-01-11T10:29:34;4.47;;;2.40;;
84301;SDS011;74468;52.218;6.896;2024-01-11T10:32:01;4.38;;;2.83;;
84301;SDS011;74468;52.218;6.896;2024-01-11T10:34:28;5.90;;;2.63;;
84301;SDS011;74468;52.218;6.896;2024-01-11T10:36:54;4.85;;;3.13;;
84301;SDS011;74468;52.218;6.896;2024-01-11T10:39:21;5.05;;;2.97;;
84301;SDS011;74468;52.218;6.896;2024-01-11T10:41:52;4.43;;;3.13;;
84301;SDS011;74468;52.218;6.896;2024-01-11T10:44:29;5.05;;;2.83;;
84301;SDS011;74468;52.218;6.896;2024-01-11T10:46:58;5.25;;;3.00;;
84301;SDS011;74468;52.218;6.896;2024-01-11T10:49:24;4.80;;;3.10;;
84301;SDS011;74468;52.218;6.896;2024-01-11T10:52:01;4.72;;;2.97;;
84301;SDS011;74468;52.218;6.896;2024-01-11T10:54:28;4.90;;;3.40;;
84301;SDS011;74468;52.218;6.896;2024-01-11T10:56:55;5.53;;;2.60;;
84301;SDS011;74468;52.218;6.896;2024-01-11T10:59:21;8.27;;;2.90;;
84301;SDS011;74468;52.218;6.896;2024-01-11T11:01:52;4.57;;;2.88;;
84301;SDS011;74468;52.218;6.896;2024-01-11T11:04:19;4.95;;;3.35;;
84301;SDS011;74468;52.218;6.896;2024-01-11T11:06:46;4.88;;;2.90;;
84301;SDS011;74468;52.218;6.896;2024-01-11T11:09:11;5.35;;;3.00;;
84301;SDS011;74468;52.218;6.896;2024-01-11T11:11:39;4.00;;;2.33;;
84301;SDS011;74468;52.218;6.896;2024-01-11T11:14:05;4.47;;;2.63;;
84301;SDS011;74468;52.218;6.896;2024-01-11T11:16:30;3.55;;;2.28;;
84301;SDS011;74468;52.218;6.896;2024-01-11T11:18:55;4.97;;;2.95;;
84301;SDS011;74468;52.218;6.896;2024-01-11T11:21:21;4.20;;;2.60;;
84301;SDS011;74468;52.218;6.896;2024-01-11T11:23:47;4.50;;;2.35;;
84301;SDS011;74468;52.218;6.896;2024-01-11T11:26:16;3.58;;;2.58;;
84301;SDS011;74468;52.218;6.896;2024-01-11T11:28:42;4.97;;;3.03;;
84301;SDS011;74468;52.218;6.896;2024-01-11T11:31:08;6.35;;;3.22;;
84301;SDS011;74468;52.218;6.896;2024-01-11T11:33:36;4.20;;;2.47;;
84301;SDS011;74468;52.218;6.896;2024-01-11T11:36:01;4.28;;;2.35;;
84301;SDS011;74468;52.218;6.896;2024-01-11T11:38:28;5.72;;;2.60;;
84301;SDS011;74468;52.218;6.896;2024-01-11T11:40:55;4.40;;;2.50;;
84301;SDS011;74468;52.218;6.896;2024-01-11T11:43:22;3.55;;;2.53;;
84301;SDS011;74468;52.218;6.896;2024-01-11T11:45:48;6.63;;;3.33;;
84301;SDS011;74468;52.218;6.896;2024-01-11T11:51:06;4.80;;;2.70;;
84301;SDS011;74468;52.218;6.896;2024-01-11T11:53:35;4.88;;;2.50;;
84301;SDS011;74468;52.218;6.896;2024-01-11T11:56:01;4.07;;;2.42;;
84301;SDS011;74468;52.218;6.896;2024-01-11T11:58:27;5.50;;;2.70;;
84301;SDS011;74468;52.218;6.896;2024-01-11T12:00:56;4.57;;;3.17;;
84301;SDS011;74468;52.218;6.896;2024-01-11T12:05:58;3.70;;;2.47;;
84301;SDS011;74468;52.218;6.896;2024-01-11T12:08:25;3.20;;;2.22;;
84301;SDS011;74468;52.218;6.896;2024-01-11T12:10:51;3.70;;;2.53;;
84301;SDS011;74468;52.218;6.896;2024-01-11T12:13:17;5.25;;;3.25;;
84301;SDS011;74468;52.218;6.896;2024-01-11T12:15:43;5.18;;;2.40;;
84301;SDS011;74468;52.218;6.896;2024-01-11T12:18:08;5.47;;;2.65;;
84301;SDS011;74468;52.218;6.896;2024-01-11T12:20:33;4.03;;;2.38;;
84301;SDS011;74468;52.218;6.896;2024-01-11T12:22:59;4.22;;;2.40;;
84301;SDS011;74468;52.218;6.896;2024-01-11T12:25:24;3.85;;;2.25;;
84301;SDS011;74468;52.218;6.896;2024-01-11T12:27:50;3.75;;;2.50;;
84301;SDS011;74468;52.218;6.896;2024-01-11T12:30:16;3.28;;;2.25;;
84301;SDS011;74468;52.218;6.896;2024-01-11T12:32:42;4.65;;;2.67;;
84301;SDS011;74468;52.218;6.896;2024-01-11T12:35:08;5.55;;;3.28;;
84301;SDS011;74468;52.218;6.896;2024-01-11T12:37:34;2.88;;;2.25;;
84301;SDS011;74468;52.218;6.896;2024-01-11T12:39:59;4.25;;;2.20;;
84301;SDS011;74468;52.218;6.896;2024-01-11T12:42:26;4.22;;;2.30;;
84301;SDS011;74468;52.218;6.896;2024-01-11T12:44:52;3.78;;;2.40;;
84301;SDS011;74468;52.218;6.896;2024-01-11T12:47:18;6.22;;;2.53;;
84301;SDS011;74468;52.218;6.896;2024-01-11T12:49:43;3.83;;;2.55;;
84301;SDS011;74468;52.218;6.896;2024-01-11T12:52:19;3.00;;;1.95;;
84301;SDS011;74468;52.218;6.896;2024-01-11T12:54:45;3.85;;;2.03;;
84301;SDS011;74468;52.218;6.896;2024-01-11T12:57:11;4.30;;;2.95;;
84301;SDS011;74468;52.218;6.896;2024-01-11T12:59:37;4.07;;;2.10;;
84301;SDS011;74468;52.218;6.896;2024-01-11T13:02:04;3.67;;;2.42;;
84301;SDS011;74468;52.218;6.896;2024-01-11T13:04:30;4.50;;;2.17;;
84301;SDS011;74468;52.218;6.896;2024-01-11T13:06:56;3.50;;;2.42;;
84301;SDS011;74468;52.218;6.896;2024-01-11T13:09:21;3.25;;;2.25;;
84301;SDS011;74468;52.218;6.896;2024-01-11T13:11:47;3.75;;;2.25;;
84301;SDS011;74468;52.218;6.896;2024-01-11T13:14:12;5.45;;;2.67;;
84301;SDS011;74468;52.218;6.896;2024-01-11T13:16:43;3.85;;;2.03;;
84301;SDS011;74468;52.218;6.896;2024-01-11T13:19:10;3.13;;;2.70;;
84301;SDS011;74468;52.218;6.896;2024-01-11T13:21:36;4.00;;;2.83;;
84301;SDS011;74468;52.218;6.896;2024-01-11T13:24:02;4.15;;;2.67;;
84301;SDS011;74468;52.218;6.896;2024-01-11T13:26:27;4.45;;;2.83;;
84301;SDS011;74468;52.218;6.896;2024-01-11T13:28:53;3.67;;;2.38;;
84301;SDS011;74468;52.218;6.896;2024-01-11T13:31:18;4.22;;;2.00;;
84301;SDS011;74468;52.218;6.896;2024-01-11T13:33:45;4.78;;;2.33;;
84301;SDS011;74468;52.218;6.896;2024-01-11T13:36:10;4.50;;;2.13;;
84301;SDS011;74468;52.218;6.896;2024-01-11T13:38:36;2.80;;;2.05;;
84301;SDS011;74468;52.218;6.896;2024-01-11T13:41:01;3.00;;;2.28;;
84301;SDS011;74468;52.218;6.896;2024-01-11T13:43:26;3.15;;;1.90;;
84301;SDS011;74468;52.218;6.896;2024-01-11T13:45:52;3.72;;;2.40;;
84301;SDS011;74468;52.218;6.896;2024-01-11T13:48:19;3.38;;;2.47;;
84301;SDS011;74468;52.218;6.896;2024-01-11T13:50:45;3.95;;;2.50;;
84301;SDS011;74468;52.218;6.896;2024-01-11T13:53:10;3.10;;;2.13;;
84301;SDS011;74468;52.218;6.896;2024-01-11T13:55:35;5.13;;;2.28;;
84301;SDS011;74468;52.218;6.896;2024-01-11T13:58:04;3.17;;;2.30;;
84301;SDS011;74468;52.218;6.896;2024-01-11T14:00:30;2.90;;;1.98;;
84301;SDS011;74468;52.218;6.896;2024-01-11T14:02:55;3.70;;;2.30;;
84301;SDS011;74468;52.218;6.896;2024-01-11T14:05:21;3.92;;;2.20;;
84301;SDS011;74468;52.218;6.896;2024-01-11T14:07:46;4.28;;;2.90;;
84301;SDS011;74468;52.218;6.896;2024-01-11T14:10:13;4.57;;;2.33;;
84301;SDS011;74468;52.218;6.896;2024-01-11T14:12:39;3.53;;;2.47;;
84301;SDS011;74468;52.218;6.896;2024-01-11T14:15:06;3.40;;;2.00;;
84301;SDS011;74468;52.218;6.896;2024-01-11T14:17:33;3.15;;;1.85;;
84301;SDS011;74468;52.218;6.896;2024-01-11T14:19:59;2.50;;;1.90;;
84301;SDS011;74468;52.218;6.896;2024-01-11T14:22:25;3.22;;;2.13;;
84301;SDS011;74468;52.218;6.896;2024-01-11T14:24:50;3.35;;;2.20;;
84301;SDS011;74468;52.218;6.896;2024-01-11T14:27:16;3.15;;;2.00;;
84301;SDS011;74468;52.218;6.896;2024-01-11T14:29:41;3.58;;;2.35;;
84301;SDS011;74468;52.218;6.896;2024-01-11T14:32:07;3.53;;;2.20;;
84301;SDS011;74468;52.218;6.896;2024-01-11T14:34:32;3.90;;;1.80;;
84301;SDS011;74468;52.218;6.896;2024-01-11T14:36:58;3.30;;;2.15;;
84301;SDS011;74468;52.218;6.896;2024-01-11T14:39:23;3.22;;;2.10;;
84301;SDS011;74468;52.218;6.896;2024-01-11T14:41:49;3.03;;;2.00;;
84301;SDS011;74468;52.218;6.896;2024-01-11T14:44:14;2.90;;;1.80;;
84301;SDS011;74468;52.218;6.896;2024-01-11T14:46:40;2.88;;;1.77;;